DAL2165 KATL-KCRW
Flight info
| Callsign | DAL2165 |
|---|---|
| Flight time | 0h 55m |
| Altitude | 35000 |
| Route | SMKEY2 BOBBD Q71 ATUME HVQ |
| Aircraft | A21N/M-SADE2E3GHIJ4J7M3P2RWXYZ/LB1D1 |
Departure
| Time | 2026-05-05 18:00 |
|---|---|
| Airport | Hartsfield Jackson Atlanta International Airport (KATL) |
Arrival
| Time | 2026-05-05 18:56 |
|---|---|
| Airport | Yeager Airport (KCRW) |
| Time | Latitude | Longitude | Altitude | Speed | Heading |
|---|---|---|---|---|---|
| 2026-05-05 17:37 | 33.64203 | -84.43194 | 1041 ft | 0 kts | 271° |
| 2026-05-05 17:49 | 33.64203 | -84.43182 | 1041 ft | 3 kts | 267° |
| 2026-05-05 17:49 | 33.64203 | -84.43160 | 1041 ft | 3 kts | 277° |
| 2026-05-05 17:50 | 33.64198 | -84.43141 | 1041 ft | 3 kts | 320° |
| 2026-05-05 17:50 | 33.64182 | -84.43133 | 1041 ft | 3 kts | 355° |
| 2026-05-05 17:50 | 33.64167 | -84.43132 | 1041 ft | 1 kts | 359° |
| 2026-05-05 17:50 | 33.64165 | -84.43132 | 1041 ft | 0 kts | 359° |
| 2026-05-05 17:53 | 33.64168 | -84.43132 | 1041 ft | 2 kts | 359° |
| 2026-05-05 17:53 | 33.64196 | -84.43132 | 1041 ft | 6 kts | 359° |
| 2026-05-05 17:54 | 33.64246 | -84.43133 | 1041 ft | 9 kts | 359° |
| 2026-05-05 17:54 | 33.64317 | -84.43133 | 1041 ft | 11 kts | 359° |
| 2026-05-05 17:54 | 33.64404 | -84.43134 | 1041 ft | 11 kts | 360° |
| 2026-05-05 17:54 | 33.64460 | -84.43070 | 1041 ft | 14 kts | 81° |
| 2026-05-05 17:55 | 33.64463 | -84.42947 | 1041 ft | 16 kts | 89° |
| 2026-05-05 17:55 | 33.64462 | -84.42805 | 1041 ft | 18 kts | 90° |
| 2026-05-05 17:55 | 33.64469 | -84.42647 | 1041 ft | 20 kts | 89° |
| 2026-05-05 17:55 | 33.64470 | -84.42472 | 1041 ft | 22 kts | 90° |
| 2026-05-05 17:56 | 33.64469 | -84.42299 | 1041 ft | 19 kts | 90° |
| 2026-05-05 17:56 | 33.64524 | -84.42160 | 1040 ft | 11 kts | 62° |
| 2026-05-05 17:56 | 33.64544 | -84.42060 | 1040 ft | 14 kts | 86° |
| 2026-05-05 17:56 | 33.64545 | -84.41936 | 1041 ft | 16 kts | 91° |
| 2026-05-05 17:57 | 33.64543 | -84.41792 | 1041 ft | 18 kts | 91° |
| 2026-05-05 17:57 | 33.64541 | -84.41631 | 1041 ft | 20 kts | 91° |
| 2026-05-05 17:57 | 33.64541 | -84.41452 | 1041 ft | 22 kts | 90° |
| 2026-05-05 17:57 | 33.64542 | -84.41259 | 1041 ft | 24 kts | 89° |
| 2026-05-05 17:58 | 33.64543 | -84.41050 | 1041 ft | 26 kts | 89° |
| 2026-05-05 17:58 | 33.64544 | -84.40912 | 1041 ft | 15 kts | 90° |
| 2026-05-05 17:58 | 33.64554 | -84.40801 | 1040 ft | 14 kts | 73° |
| 2026-05-05 17:58 | 33.64571 | -84.40676 | 1040 ft | 15 kts | 89° |
| 2026-05-05 17:59 | 33.64572 | -84.40615 | 1040 ft | 4 kts | 90° |
| 2026-05-05 17:59 | 33.64588 | -84.40575 | 1040 ft | 7 kts | 30° |
| 2026-05-05 17:59 | 33.64638 | -84.40568 | 1039 ft | 9 kts | 341° |
| 2026-05-05 17:59 | 33.64678 | -84.40629 | 1038 ft | 11 kts | 275° |
| 2026-05-05 18:00 | 33.64679 | -84.40771 | 1039 ft | 41 kts | 270° |
| 2026-05-05 18:00 | 33.64675 | -84.41574 | 1043 ft | 149 kts | 268° |
| 2026-05-05 18:00 | 33.64681 | -84.42935 | 2244 ft | 155 kts | 265° |
| 2026-05-05 18:00 | 33.64685 | -84.44256 | 3471 ft | 165 kts | 261° |
| 2026-05-05 18:01 | 33.64657 | -84.45773 | 3928 ft | 200 kts | 268° |
| 2026-05-05 18:01 | 33.65041 | -84.47550 | 4310 ft | 243 kts | 290° |
| 2026-05-05 18:01 | 33.65807 | -84.49494 | 4874 ft | 272 kts | 292° |
| 2026-05-05 18:01 | 33.66655 | -84.51587 | 5851 ft | 278 kts | 292° |
| 2026-05-05 18:02 | 33.67484 | -84.53668 | 7059 ft | 274 kts | 291° |
| 2026-05-05 18:02 | 33.68338 | -84.55703 | 8129 ft | 276 kts | 297° |
| 2026-05-05 18:02 | 33.69624 | -84.57412 | 9078 ft | 287 kts | 321° |
| 2026-05-05 18:02 | 33.71522 | -84.58310 | 10041 ft | 298 kts | 349° |
| 2026-05-05 18:03 | 33.73607 | -84.58363 | 10926 ft | 303 kts | 358° |
| 2026-05-05 18:03 | 33.75726 | -84.58271 | 11806 ft | 306 kts | 358° |
| 2026-05-05 18:03 | 33.77858 | -84.58193 | 12717 ft | 307 kts | 358° |
| 2026-05-05 18:03 | 33.80005 | -84.58116 | 13616 ft | 311 kts | 0° |
| 2026-05-05 18:04 | 33.82129 | -84.57519 | 14348 ft | 325 kts | 19° |
| 2026-05-05 18:04 | 33.84205 | -84.56223 | 14711 ft | 346 kts | 26° |
| 2026-05-05 18:04 | 33.86356 | -84.54728 | 15020 ft | 367 kts | 26° |
| 2026-05-05 18:04 | 33.88629 | -84.53159 | 15311 ft | 386 kts | 26° |
| 2026-05-05 18:05 | 33.91026 | -84.51533 | 15618 ft | 404 kts | 26° |
| 2026-05-05 18:05 | 33.93469 | -84.49891 | 16192 ft | 411 kts | 25° |
| 2026-05-05 18:05 | 33.96012 | -84.48189 | 16908 ft | 415 kts | 25° |
| 2026-05-05 18:05 | 33.98544 | -84.46493 | 17648 ft | 418 kts | 24° |
| 2026-05-05 18:06 | 34.01069 | -84.44803 | 18345 ft | 422 kts | 24° |
| 2026-05-05 18:06 | 34.01934 | -84.44225 | 18553 ft | 423 kts | 24° |
| 2026-05-05 18:06 | 34.06251 | -84.41331 | 19575 ft | 430 kts | 24° |
| 2026-05-05 18:06 | 34.08870 | -84.39573 | 20183 ft | 433 kts | 24° |
| 2026-05-05 18:07 | 34.11512 | -84.37800 | 20766 ft | 437 kts | 24° |
| 2026-05-05 18:07 | 34.14178 | -84.36011 | 21366 ft | 440 kts | 24° |
| 2026-05-05 18:07 | 34.16903 | -84.34189 | 21936 ft | 443 kts | 23° |
| 2026-05-05 18:07 | 34.19574 | -84.32402 | 22522 ft | 447 kts | 24° |
| 2026-05-05 18:08 | 34.22299 | -84.30550 | 23098 ft | 451 kts | 24° |
| 2026-05-05 18:08 | 34.25042 | -84.28694 | 23655 ft | 454 kts | 23° |
| 2026-05-05 18:08 | 34.27840 | -84.26898 | 24123 ft | 454 kts | 19° |
| 2026-05-05 18:08 | 34.30800 | -84.25676 | 24584 ft | 447 kts | 7° |
| 2026-05-05 18:09 | 34.33845 | -84.24938 | 25036 ft | 448 kts | 4° |
| 2026-05-05 18:09 | 34.36917 | -84.24263 | 25508 ft | 450 kts | 4° |
| 2026-05-05 18:09 | 34.40006 | -84.23573 | 25973 ft | 453 kts | 4° |
| 2026-05-05 18:09 | 34.43112 | -84.22860 | 26428 ft | 455 kts | 4° |
| 2026-05-05 18:10 | 34.46232 | -84.22132 | 26872 ft | 458 kts | 5° |
| 2026-05-05 18:10 | 34.49369 | -84.21393 | 27296 ft | 460 kts | 5° |
| 2026-05-05 18:10 | 34.52517 | -84.20653 | 27784 ft | 461 kts | 4° |
| 2026-05-05 18:10 | 34.55652 | -84.19914 | 28370 ft | 458 kts | 4° |
| 2026-05-05 18:11 | 34.58772 | -84.19178 | 28950 ft | 456 kts | 4° |
| 2026-05-05 18:11 | 34.61885 | -84.18444 | 29494 ft | 455 kts | 4° |
| 2026-05-05 18:11 | 34.64991 | -84.17713 | 30049 ft | 453 kts | 4° |
| 2026-05-05 18:11 | 34.68078 | -84.16986 | 30577 ft | 450 kts | 4° |
| 2026-05-05 18:12 | 34.70107 | -84.16505 | 30941 ft | 447 kts | 3° |
| 2026-05-05 18:12 | 34.73147 | -84.15786 | 31515 ft | 442 kts | 3° |
| 2026-05-05 18:12 | 34.76152 | -84.15068 | 32067 ft | 439 kts | 3° |
| 2026-05-05 18:12 | 34.79120 | -84.14265 | 32568 ft | 436 kts | 4° |
| 2026-05-05 18:13 | 34.82069 | -84.13446 | 33087 ft | 432 kts | 4° |
| 2026-05-05 18:13 | 34.84989 | -84.12635 | 33572 ft | 429 kts | 4° |
| 2026-05-05 18:13 | 34.87883 | -84.11833 | 34034 ft | 425 kts | 3° |
| 2026-05-05 18:13 | 34.90764 | -84.11033 | 34425 ft | 422 kts | 3° |
| 2026-05-05 18:14 | 34.93618 | -84.10238 | 34772 ft | 421 kts | 2° |
| 2026-05-05 18:14 | 34.96466 | -84.09446 | 35037 ft | 420 kts | 2° |
| 2026-05-05 18:14 | 34.99312 | -84.08654 | 35098 ft | 419 kts | 2° |
| 2026-05-05 18:15 | 35.04989 | -84.07074 | 35081 ft | 418 kts | 2° |
| 2026-05-05 18:15 | 35.10653 | -84.05494 | 35065 ft | 418 kts | 2° |
| 2026-05-05 18:16 | 35.16327 | -84.03906 | 35069 ft | 418 kts | 2° |
| 2026-05-05 18:16 | 35.22014 | -84.02316 | 35061 ft | 420 kts | 2° |
| 2026-05-05 18:17 | 35.27692 | -84.00721 | 35071 ft | 418 kts | 2° |
| 2026-05-05 18:17 | 35.33361 | -83.99129 | 35061 ft | 419 kts | 2° |
| 2026-05-05 18:18 | 35.39037 | -83.97534 | 35045 ft | 418 kts | 2° |
| 2026-05-05 18:18 | 35.44708 | -83.95935 | 35054 ft | 419 kts | 2° |
| 2026-05-05 18:19 | 35.50398 | -83.94331 | 35036 ft | 419 kts | 1° |
| 2026-05-05 18:19 | 35.56072 | -83.92726 | 35007 ft | 419 kts | 2° |
| 2026-05-05 18:20 | 35.61758 | -83.91119 | 35009 ft | 420 kts | 2° |
| 2026-05-05 18:20 | 35.67415 | -83.89516 | 35029 ft | 420 kts | 2° |
| 2026-05-05 18:21 | 35.73111 | -83.87902 | 35018 ft | 420 kts | 2° |
| 2026-05-05 18:21 | 35.75413 | -83.87251 | 35022 ft | 420 kts | 2° |
| 2026-05-05 18:22 | 35.81068 | -83.85198 | 35016 ft | 438 kts | 14° |
| 2026-05-05 18:22 | 35.86477 | -83.81538 | 35021 ft | 445 kts | 19° |
| 2026-05-05 18:23 | 35.91853 | -83.77763 | 35023 ft | 444 kts | 18° |
| 2026-05-05 18:23 | 35.97251 | -83.74049 | 35016 ft | 445 kts | 18° |
| 2026-05-05 18:24 | 36.01619 | -83.71057 | 35013 ft | 444 kts | 18° |
| 2026-05-05 18:24 | 36.03790 | -83.69578 | 35009 ft | 445 kts | 18° |
| 2026-05-05 18:25 | 36.09208 | -83.65867 | 35004 ft | 445 kts | 18° |
| 2026-05-05 18:25 | 36.14621 | -83.62133 | 35023 ft | 446 kts | 18° |
| 2026-05-05 18:26 | 36.20040 | -83.58389 | 35032 ft | 446 kts | 18° |
| 2026-05-05 18:26 | 36.25454 | -83.54646 | 35038 ft | 445 kts | 18° |
| 2026-05-05 18:27 | 36.30867 | -83.50889 | 35031 ft | 447 kts | 18° |
| 2026-05-05 18:27 | 36.36237 | -83.47126 | 35032 ft | 446 kts | 18° |
| 2026-05-05 18:28 | 36.44338 | -83.41467 | 35009 ft | 445 kts | 18° |
| 2026-05-05 18:28 | 36.49754 | -83.37729 | 34991 ft | 445 kts | 17° |
| 2026-05-05 18:29 | 36.55166 | -83.33971 | 34987 ft | 446 kts | 18° |
| 2026-05-05 18:29 | 36.60570 | -83.30188 | 34988 ft | 446 kts | 18° |
| 2026-05-05 18:30 | 36.65961 | -83.26361 | 34989 ft | 446 kts | 18° |
| 2026-05-05 18:30 | 36.71351 | -83.22546 | 34981 ft | 445 kts | 18° |
| 2026-05-05 18:31 | 36.76762 | -83.18792 | 34978 ft | 445 kts | 18° |
| 2026-05-05 18:31 | 36.82155 | -83.15018 | 34980 ft | 444 kts | 18° |
| 2026-05-05 18:32 | 36.87546 | -83.11225 | 34991 ft | 443 kts | 18° |
| 2026-05-05 18:32 | 36.92935 | -83.07429 | 34983 ft | 446 kts | 18° |
| 2026-05-05 18:33 | 36.98203 | -83.03185 | 34972 ft | 456 kts | 24° |
| 2026-05-05 18:33 | 37.03347 | -82.98516 | 34980 ft | 457 kts | 25° |
| 2026-05-05 18:34 | 37.08497 | -82.93844 | 34980 ft | 457 kts | 25° |
| 2026-05-05 18:34 | 37.13643 | -82.89185 | 34975 ft | 457 kts | 25° |
| 2026-05-05 18:35 | 37.18796 | -82.84504 | 34977 ft | 457 kts | 25° |
| 2026-05-05 18:35 | 37.23934 | -82.79829 | 34973 ft | 457 kts | 25° |
| 2026-05-05 18:36 | 37.29011 | -82.75210 | 34920 ft | 446 kts | 24° |
| 2026-05-05 18:36 | 37.31546 | -82.72908 | 34107 ft | 449 kts | 25° |
| 2026-05-05 18:36 | 37.34109 | -82.70590 | 32796 ft | 461 kts | 25° |
| 2026-05-05 18:37 | 37.36724 | -82.68213 | 31705 ft | 468 kts | 27° |
| 2026-05-05 18:37 | 37.39364 | -82.65801 | 30882 ft | 471 kts | 28° |
| 2026-05-05 18:37 | 37.41985 | -82.63408 | 30153 ft | 471 kts | 28° |
| 2026-05-05 18:37 | 37.44641 | -82.60978 | 29261 ft | 472 kts | 29° |
| 2026-05-05 18:38 | 37.47336 | -82.58515 | 28351 ft | 473 kts | 30° |
| 2026-05-05 18:38 | 37.49966 | -82.56100 | 27629 ft | 478 kts | 30° |
| 2026-05-05 18:38 | 37.52666 | -82.53622 | 26885 ft | 481 kts | 31° |
| 2026-05-05 18:38 | 37.55360 | -82.51139 | 26143 ft | 478 kts | 32° |
| 2026-05-05 18:39 | 37.58032 | -82.48682 | 25417 ft | 474 kts | 32° |
| 2026-05-05 18:39 | 37.60684 | -82.46239 | 24720 ft | 471 kts | 33° |
| 2026-05-05 18:39 | 37.63319 | -82.43811 | 24005 ft | 468 kts | 33° |
| 2026-05-05 18:39 | 37.65940 | -82.41396 | 23228 ft | 463 kts | 33° |
| 2026-05-05 18:40 | 37.68523 | -82.39015 | 22404 ft | 458 kts | 34° |
| 2026-05-05 18:40 | 37.71080 | -82.36651 | 21617 ft | 452 kts | 34° |
| 2026-05-05 18:40 | 37.73591 | -82.34315 | 20874 ft | 446 kts | 34° |
| 2026-05-05 18:40 | 37.76069 | -82.32005 | 20177 ft | 439 kts | 34° |
| 2026-05-05 18:41 | 37.78511 | -82.29744 | 19525 ft | 432 kts | 34° |
| 2026-05-05 18:41 | 37.80917 | -82.27503 | 18894 ft | 426 kts | 34° |
| 2026-05-05 18:41 | 37.83295 | -82.25305 | 18302 ft | 422 kts | 33° |
| 2026-05-05 18:41 | 37.85670 | -82.23121 | 17654 ft | 421 kts | 33° |
| 2026-05-05 18:42 | 37.88033 | -82.20943 | 17031 ft | 420 kts | 34° |
| 2026-05-05 18:42 | 37.90387 | -82.18765 | 16415 ft | 419 kts | 34° |
| 2026-05-05 18:42 | 37.92740 | -82.16584 | 15816 ft | 419 kts | 34° |
| 2026-05-05 18:42 | 37.95085 | -82.14396 | 15251 ft | 418 kts | 34° |
| 2026-05-05 18:43 | 37.97416 | -82.12224 | 14713 ft | 416 kts | 34° |
| 2026-05-05 18:43 | 37.99750 | -82.10047 | 14145 ft | 416 kts | 34° |
| 2026-05-05 18:43 | 38.02079 | -82.07879 | 13549 ft | 415 kts | 34° |
| 2026-05-05 18:43 | 38.04407 | -82.05711 | 12927 ft | 415 kts | 34° |
| 2026-05-05 18:44 | 38.06723 | -82.03537 | 12366 ft | 414 kts | 35° |
| 2026-05-05 18:44 | 38.09039 | -82.01368 | 11768 ft | 413 kts | 35° |
| 2026-05-05 18:44 | 38.11314 | -81.99235 | 11257 ft | 408 kts | 35° |
| 2026-05-05 18:44 | 38.13567 | -81.97126 | 10928 ft | 395 kts | 35° |
| 2026-05-05 18:45 | 38.15737 | -81.95092 | 10681 ft | 381 kts | 35° |
| 2026-05-05 18:45 | 38.17855 | -81.93107 | 10459 ft | 367 kts | 35° |
| 2026-05-05 18:45 | 38.19851 | -81.91240 | 10227 ft | 355 kts | 35° |
| 2026-05-05 18:45 | 38.21801 | -81.89410 | 9827 ft | 343 kts | 35° |
| 2026-05-05 18:46 | 38.23681 | -81.87638 | 9354 ft | 331 kts | 36° |
| 2026-05-05 18:46 | 38.25433 | -81.85969 | 8994 ft | 322 kts | 37° |
| 2026-05-05 18:46 | 38.27249 | -81.84259 | 8579 ft | 320 kts | 35° |
| 2026-05-05 18:46 | 38.29009 | -81.82616 | 8204 ft | 318 kts | 35° |
| 2026-05-05 18:47 | 38.30785 | -81.80951 | 7773 ft | 313 kts | 36° |
| 2026-05-05 18:47 | 38.32512 | -81.79327 | 7362 ft | 310 kts | 35° |
| 2026-05-05 18:47 | 38.34256 | -81.77682 | 6997 ft | 309 kts | 36° |
| 2026-05-05 18:47 | 38.35918 | -81.75916 | 6659 ft | 304 kts | 42° |
| 2026-05-05 18:48 | 38.37422 | -81.74152 | 6281 ft | 293 kts | 42° |
| 2026-05-05 18:48 | 38.38909 | -81.72389 | 5839 ft | 284 kts | 43° |
| 2026-05-05 18:48 | 38.40324 | -81.70712 | 5399 ft | 279 kts | 43° |
| 2026-05-05 18:48 | 38.41702 | -81.69074 | 5167 ft | 262 kts | 43° |
| 2026-05-05 18:49 | 38.43004 | -81.67531 | 5150 ft | 256 kts | 43° |
| 2026-05-05 18:49 | 38.44287 | -81.66018 | 5164 ft | 243 kts | 43° |
| 2026-05-05 18:49 | 38.45482 | -81.64613 | 5159 ft | 223 kts | 43° |
| 2026-05-05 18:49 | 38.46578 | -81.63264 | 5166 ft | 221 kts | 46° |
| 2026-05-05 18:50 | 38.47622 | -81.61826 | 4890 ft | 220 kts | 47° |
| 2026-05-05 18:50 | 38.48657 | -81.60393 | 4637 ft | 218 kts | 47° |
| 2026-05-05 18:50 | 38.49687 | -81.58967 | 4426 ft | 219 kts | 47° |
| 2026-05-05 18:50 | 38.50539 | -81.57379 | 4099 ft | 217 kts | 70° |
| 2026-05-05 18:51 | 38.50838 | -81.55533 | 3793 ft | 210 kts | 92° |
| 2026-05-05 18:51 | 38.50657 | -81.53736 | 3524 ft | 199 kts | 113° |
| 2026-05-05 18:51 | 38.50088 | -81.52180 | 3218 ft | 189 kts | 132° |
| 2026-05-05 18:51 | 38.49237 | -81.50982 | 2938 ft | 177 kts | 150° |
| 2026-05-05 18:52 | 38.48252 | -81.50203 | 2723 ft | 157 kts | 163° |
| 2026-05-05 18:52 | 38.47222 | -81.49810 | 2548 ft | 156 kts | 176° |
| 2026-05-05 18:52 | 38.46169 | -81.49749 | 2481 ft | 147 kts | 189° |
| 2026-05-05 18:52 | 38.45169 | -81.49986 | 2489 ft | 142 kts | 201° |
| 2026-05-05 18:53 | 38.44243 | -81.50498 | 2453 ft | 148 kts | 212° |
| 2026-05-05 18:53 | 38.43437 | -81.51293 | 2520 ft | 144 kts | 224° |
| 2026-05-05 18:53 | 38.42777 | -81.52215 | 2384 ft | 136 kts | 231° |
| 2026-05-05 18:53 | 38.42174 | -81.53031 | 2161 ft | 123 kts | 225° |
| 2026-05-05 18:54 | 38.41606 | -81.53813 | 1977 ft | 115 kts | 227° |
| 2026-05-05 18:54 | 38.41053 | -81.54575 | 1862 ft | 118 kts | 226° |
| 2026-05-05 18:54 | 38.40484 | -81.55354 | 1615 ft | 121 kts | 227° |
| 2026-05-05 18:54 | 38.39899 | -81.56156 | 1501 ft | 127 kts | 227° |
| 2026-05-05 18:55 | 38.39309 | -81.56979 | 1294 ft | 122 kts | 230° |
| 2026-05-05 18:55 | 38.38722 | -81.57761 | 1142 ft | 122 kts | 229° |
| 2026-05-05 18:55 | 38.38143 | -81.58540 | 959 ft | 119 kts | 229° |
| 2026-05-05 18:55 | 38.37647 | -81.59229 | 944 ft | 79 kts | 227° |
| 2026-05-05 18:56 | 38.37409 | -81.59552 | 953 ft | 14 kts | 226° |
| 2026-05-05 18:56 | 38.37367 | -81.59608 | 955 ft | 8 kts | 219° |
| 2026-05-05 18:56 | 38.37318 | -81.59573 | 953 ft | 11 kts | 139° |
| 2026-05-05 18:56 | 38.37255 | -81.59611 | 956 ft | 0 kts | 220° |
| 2026-05-05 18:57 | 38.37250 | -81.59616 | 956 ft | 2 kts | 220° |
| 2026-05-05 18:57 | 38.37233 | -81.59638 | 956 ft | 5 kts | 226° |
| 2026-05-05 18:57 | 38.37195 | -81.59664 | 954 ft | 8 kts | 193° |
| 2026-05-05 18:57 | 38.37162 | -81.59670 | 954 ft | 3 kts | 185° |
| 2026-05-05 18:58 | 38.37134 | -81.59673 | 954 ft | 0 kts | 184° |
| 2026-05-05 18:58 | 38.37124 | -81.59673 | 954 ft | 3 kts | 184° |
| 2026-05-05 18:58 | 38.37123 | -81.59673 | 954 ft | 0 kts | 184° |